createdAt,value
2022-11-13T00:00:33.955Z,96.27
2022-11-13T00:01:29.281Z,96.34
2022-11-13T00:02:24.646Z,96.29
2022-11-13T00:03:20.911Z,96.18
2022-11-13T00:04:16.238Z,96.14
2022-11-13T00:05:12.086Z,96.13
2022-11-13T00:06:07.366Z,96.12
2022-11-13T00:07:02.594Z,96.23
2022-11-13T00:07:58.361Z,96.24
2022-11-13T00:08:53.555Z,96.22
2022-11-13T00:09:49.404Z,96.27
2022-11-13T00:10:44.677Z,96.33
2022-11-13T00:11:39.930Z,96.48
2022-11-13T00:12:35.682Z,96.57
2022-11-13T00:13:31.011Z,96.57
2022-11-13T00:14:25.985Z,96.52
2022-11-13T00:15:22.551Z,96.60
2022-11-13T00:16:17.715Z,96.49
2022-11-13T00:17:13.545Z,96.28
2022-11-13T00:18:08.731Z,96.31
2022-11-13T00:19:03.890Z,96.37
2022-11-13T00:19:59.771Z,96.35
2022-11-13T00:20:55.061Z,96.17
2022-11-13T00:21:51.041Z,96.08
2022-11-13T00:22:46.251Z,96.01
2022-11-13T00:23:41.285Z,96.07
2022-11-13T00:24:37.128Z,96.14
2022-11-13T00:25:32.428Z,96.21
2022-11-13T00:26:27.838Z,96.28
2022-11-13T00:27:23.986Z,96.39
2022-11-13T00:28:19.360Z,96.38
2022-11-13T00:29:15.124Z,96.51
2022-11-13T00:30:13.692Z,96.56
2022-11-13T00:31:06.904Z,96.57
2022-11-13T00:32:01.140Z,96.66
2022-11-13T00:32:56.989Z,96.75
2022-11-13T00:34:48.860Z,96.81
2022-11-13T00:35:43.034Z,96.92
2022-11-13T00:36:39.004Z,97.05
2022-11-13T00:37:34.171Z,97.14
2022-11-13T00:38:29.698Z,97.21
2022-11-13T00:39:25.174Z,97.25
2022-11-13T00:40:20.357Z,97.29
2022-11-13T00:41:16.345Z,97.24
2022-11-13T00:42:11.374Z,97.19
2022-11-13T00:43:06.547Z,97.22
2022-11-13T00:44:02.423Z,97.27
2022-11-13T00:44:57.679Z,97.25
2022-11-13T00:45:52.951Z,97.21
2022-11-13T00:46:48.109Z,97.14
2022-11-13T00:47:43.265Z,97.18
2022-11-13T00:48:39.136Z,97.14
2022-11-13T00:49:34.429Z,97.09
2022-11-13T00:50:30.578Z,97.11
2022-11-13T00:51:25.468Z,97.09
2022-11-13T00:52:20.813Z,97.10
2022-11-13T00:53:18.264Z,97.22
2022-11-13T00:54:11.771Z,97.18
2022-11-13T00:55:07.104Z,97.01
2022-11-13T00:56:03.448Z,97.02
2022-11-13T00:56:58.596Z,96.97
2022-11-13T00:57:54.457Z,97.00
2022-11-13T00:58:49.725Z,97.01
2022-11-13T00:59:45.070Z,96.99
2022-11-13T01:00:40.712Z,97.00
2022-11-13T01:01:35.906Z,96.85
2022-11-13T01:02:31.088Z,96.79
2022-11-13T01:03:26.355Z,96.82
2022-11-13T01:04:21.766Z,96.73
2022-11-13T01:05:16.741Z,96.70
2022-11-13T01:06:11.828Z,96.58
2022-11-13T01:07:06.811Z,96.52
2022-11-13T01:08:01.823Z,96.42
2022-11-13T01:08:56.888Z,96.40
2022-11-13T01:09:51.911Z,96.53
2022-11-13T01:10:53.220Z,96.68
2022-11-13T01:11:43.032Z,96.47
2022-11-13T01:12:37.153Z,96.29
2022-11-13T01:13:32.173Z,96.19
2022-11-13T01:14:28.951Z,96.15
2022-11-13T01:15:24.110Z,96.01
2022-11-13T01:16:19.594Z,95.81
2022-11-13T01:17:14.596Z,95.72
2022-11-13T01:18:09.643Z,95.82
2022-11-13T01:19:05.310Z,95.90
2022-11-13T01:19:59.814Z,96.05
2022-11-13T01:20:54.855Z,96.07
2022-11-13T01:21:49.890Z,96.21
2022-11-13T01:22:45.025Z,96.11
2022-11-13T01:23:40.063Z,96.09
2022-11-13T01:24:35.086Z,96.16
2022-11-13T01:25:30.142Z,96.16
2022-11-13T01:26:25.137Z,96.19
2022-11-13T01:27:20.552Z,96.21
2022-11-13T01:28:15.714Z,96.26
2022-11-13T01:29:11.000Z,96.20
2022-11-13T01:30:06.173Z,96.31
2022-11-13T01:31:01.505Z,96.47
2022-11-13T01:31:56.629Z,96.52
2022-11-13T01:32:51.788Z,96.56
2022-11-13T01:33:47.045Z,96.64
2022-11-13T01:34:42.209Z,96.74
2022-11-13T01:35:37.359Z,96.79
2022-11-13T01:36:32.667Z,96.82
2022-11-13T01:37:27.959Z,96.88
2022-11-13T01:38:23.138Z,96.94
2022-11-13T01:39:18.249Z,96.91
2022-11-13T01:40:13.498Z,96.91
2022-11-13T01:41:08.854Z,96.93
2022-11-13T01:42:03.995Z,96.91
2022-11-13T01:42:59.219Z,96.98
2022-11-13T01:43:54.395Z,97.00
2022-11-13T01:44:49.544Z,97.09
2022-11-13T01:45:44.673Z,97.18
2022-11-13T01:46:39.822Z,97.25
2022-11-13T01:47:35.008Z,97.23
2022-11-13T01:48:30.507Z,97.21
2022-11-13T01:49:25.670Z,97.23
2022-11-13T01:50:21.001Z,97.25
2022-11-13T01:51:16.009Z,97.33
2022-11-13T01:52:11.278Z,97.40
2022-11-13T01:53:06.538Z,97.41
2022-11-13T01:54:01.949Z,97.43
2022-11-13T01:54:57.099Z,97.47
2022-11-13T01:55:52.654Z,97.48
2022-11-13T01:56:47.629Z,97.41
2022-11-13T01:57:43.799Z,97.39
2022-11-13T01:58:38.135Z,97.38
2022-11-13T01:59:33.163Z,97.45
2022-11-13T02:00:28.442Z,97.48
2022-11-13T02:01:23.515Z,97.51
2022-11-13T02:02:18.679Z,97.53
2022-11-13T02:03:13.829Z,97.53
2022-11-13T02:04:09.060Z,97.54
2022-11-13T02:05:04.202Z,97.53
2022-11-13T02:05:59.493Z,97.44
2022-11-13T02:06:54.663Z,97.39
2022-11-13T02:07:49.799Z,97.36
2022-11-13T02:08:45.130Z,97.36
2022-11-13T02:09:40.019Z,97.37
2022-11-13T02:10:35.026Z,97.37
2022-11-13T02:11:30.068Z,97.41
2022-11-13T02:12:25.081Z,97.43
2022-11-13T02:13:20.192Z,97.42
2022-11-13T02:14:15.202Z,97.35
2022-11-13T02:15:10.283Z,97.39
2022-11-13T02:16:06.396Z,97.29
2022-11-13T02:17:01.402Z,97.25
2022-11-13T02:17:56.490Z,97.27
2022-11-13T02:18:51.520Z,97.23
2022-11-13T02:19:46.542Z,97.29
2022-11-13T02:20:41.596Z,97.24
2022-11-13T02:21:36.603Z,97.17
2022-11-13T02:22:31.621Z,97.17
2022-11-13T02:23:26.849Z,97.22
2022-11-13T02:24:21.989Z,97.28
2022-11-13T02:25:17.148Z,97.31
2022-11-13T02:26:12.536Z,97.38
2022-11-13T02:27:08.385Z,97.36
2022-11-13T02:28:03.428Z,97.38
2022-11-13T02:28:58.594Z,97.35
2022-11-13T02:29:54.491Z,97.29
2022-11-13T02:30:49.663Z,97.27
2022-11-13T02:31:45.037Z,97.18
2022-11-13T02:32:41.310Z,97.25
2022-11-13T02:33:36.622Z,97.29
2022-11-13T02:34:32.367Z,97.35
2022-11-13T02:35:27.631Z,97.36
2022-11-13T02:36:22.942Z,97.33
2022-11-13T02:37:18.752Z,97.42
2022-11-13T02:38:13.772Z,97.43
2022-11-13T02:39:09.511Z,97.41
2022-11-13T02:40:04.687Z,97.35
2022-11-13T02:41:00.118Z,97.29
2022-11-13T02:41:55.905Z,97.27
2022-11-13T02:42:51.077Z,97.28
2022-11-13T02:43:46.257Z,97.31
2022-11-13T02:44:42.776Z,97.38
2022-11-13T02:45:37.972Z,97.40
2022-11-13T02:46:33.851Z,97.43
2022-11-13T02:47:28.991Z,97.44
2022-11-13T02:48:24.197Z,97.42
2022-11-13T02:49:20.080Z,97.42
2022-11-13T02:50:15.280Z,97.40
2022-11-13T02:51:10.980Z,97.32
2022-11-13T02:52:06.261Z,97.32
2022-11-13T02:53:01.445Z,97.28
2022-11-13T02:53:57.339Z,97.28
2022-11-13T02:54:52.531Z,97.21
2022-11-13T02:55:47.796Z,97.23
2022-11-13T02:56:44.192Z,97.22
2022-11-13T02:57:39.500Z,97.25
2022-11-13T02:58:35.352Z,97.31
2022-11-13T02:59:30.571Z,97.39
2022-11-13T03:00:25.750Z,97.45
2022-11-13T03:01:21.580Z,97.50
2022-11-13T03:02:16.749Z,97.49
2022-11-13T03:03:12.598Z,97.47
2022-11-13T03:04:07.638Z,97.46
2022-11-13T03:05:11.954Z,97.50
2022-11-13T03:05:59.919Z,97.62
2022-11-13T03:06:54.179Z,97.61
2022-11-13T03:07:49.448Z,97.61
2022-11-13T03:08:45.626Z,97.60
2022-11-13T03:09:40.800Z,97.53
2022-11-13T03:10:36.696Z,97.51
2022-11-13T03:11:31.695Z,97.43
2022-11-13T03:12:27.146Z,97.39
2022-11-13T03:13:22.759Z,97.38
2022-11-13T03:14:18.058Z,97.40
2022-11-13T03:15:14.569Z,97.38
2022-11-13T03:16:09.181Z,97.47
2022-11-13T03:17:04.490Z,97.49
2022-11-13T03:18:00.509Z,97.56
2022-11-13T03:18:55.688Z,97.53
2022-11-13T03:19:50.864Z,97.51
2022-11-13T03:20:47.172Z,97.57
2022-11-13T03:21:42.351Z,97.59
2022-11-13T03:22:38.215Z,97.53
2022-11-13T03:23:33.376Z,97.50
2022-11-13T03:24:28.764Z,97.54
2022-11-13T03:25:24.399Z,97.57
2022-11-13T03:26:19.578Z,97.54
2022-11-13T03:27:14.914Z,97.58
2022-11-13T03:28:10.031Z,97.57
2022-11-13T03:29:06.868Z,97.54
2022-11-13T03:30:01.320Z,97.55
2022-11-13T03:30:56.338Z,97.57
2022-11-13T03:31:52.861Z,97.53
2022-11-13T03:32:48.192Z,97.45
2022-11-13T03:33:43.905Z,97.42
2022-11-13T03:34:39.199Z,97.40
2022-11-13T03:35:41.815Z,97.41
2022-11-13T03:36:31.205Z,97.37
2022-11-13T03:37:25.459Z,97.27
2022-11-13T03:38:21.302Z,97.36
2022-11-13T03:39:16.462Z,97.37
2022-11-13T03:40:11.852Z,97.25
2022-11-13T03:41:07.569Z,97.01
2022-11-13T03:42:02.751Z,96.92
2022-11-13T03:42:57.895Z,96.85
2022-11-13T03:43:54.288Z,96.85
2022-11-13T03:44:49.462Z,96.90
2022-11-13T03:45:44.591Z,96.96
2022-11-13T03:46:39.784Z,96.91
2022-11-13T03:47:35.066Z,96.91
2022-11-13T03:48:30.384Z,96.96
2022-11-13T03:49:25.120Z,96.68
2022-11-13T03:50:20.111Z,96.62
2022-11-13T03:51:15.301Z,96.61
2022-11-13T03:52:10.334Z,96.48
2022-11-13T03:53:05.354Z,96.29
2022-11-13T03:54:00.385Z,96.18
2022-11-13T03:54:55.468Z,96.15
2022-11-13T03:55:50.499Z,96.20
2022-11-13T03:56:45.556Z,96.33
2022-11-13T03:57:44.635Z,96.50
2022-11-13T03:58:40.375Z,96.57
2022-11-13T03:59:34.724Z,96.48
2022-11-13T04:00:29.773Z,96.37
2022-11-13T04:01:24.877Z,96.30
2022-11-13T04:02:19.894Z,96.23
2022-11-13T04:03:14.956Z,96.16
2022-11-13T04:04:10.132Z,96.13
2022-11-13T04:05:05.199Z,96.18
2022-11-13T04:06:00.241Z,96.15
2022-11-13T04:06:55.474Z,96.15
2022-11-13T04:07:50.520Z,96.13
2022-11-13T04:08:45.562Z,96.12
2022-11-13T04:09:40.635Z,96.11
2022-11-13T04:10:35.794Z,96.13
2022-11-13T04:11:31.544Z,96.11
2022-11-13T04:12:26.840Z,96.12
2022-11-13T04:13:22.808Z,96.08
2022-11-13T04:14:17.989Z,96.10
2022-11-13T04:15:13.293Z,96.04
2022-11-13T04:16:09.165Z,96.07
2022-11-13T04:17:04.343Z,96.10
2022-11-13T04:17:59.615Z,96.20
2022-11-13T04:18:56.795Z,96.30
2022-11-13T04:19:51.442Z,96.35
2022-11-13T04:20:47.045Z,96.38
2022-11-13T04:21:42.334Z,96.36
2022-11-13T04:22:37.655Z,96.29
2022-11-13T04:23:33.337Z,96.29
2022-11-13T04:24:28.495Z,96.32
2022-11-13T04:25:24.385Z,96.34
2022-11-13T04:26:19.525Z,96.43
2022-11-13T04:27:14.957Z,96.39
2022-11-13T04:28:10.708Z,96.36
2022-11-13T04:29:05.869Z,96.19
2022-11-13T04:30:01.054Z,96.03
2022-11-13T04:30:57.299Z,95.86
2022-11-13T04:31:52.511Z,95.72
2022-11-13T04:32:48.371Z,95.66
2022-11-13T04:33:44.167Z,95.57
2022-11-13T04:34:38.665Z,95.54
2022-11-13T04:35:34.792Z,95.64
2022-11-13T04:36:29.973Z,95.75
2022-11-13T04:37:25.689Z,95.81
2022-11-13T04:38:20.840Z,95.95
2022-11-13T04:39:16.812Z,95.99
2022-11-13T04:40:11.966Z,95.99
2022-11-13T04:41:07.164Z,96.03
2022-11-13T04:42:02.323Z,96.12
2022-11-13T04:42:58.621Z,96.17
2022-11-13T04:43:53.788Z,96.18
2022-11-13T04:44:49.743Z,96.26
2022-11-13T04:45:44.927Z,96.25
2022-11-13T04:46:40.087Z,96.22
2022-11-13T04:47:35.942Z,96.25
2022-11-13T04:48:31.301Z,96.24
2022-11-13T04:49:27.005Z,96.39
2022-11-13T04:50:22.076Z,96.41
2022-11-13T04:51:17.245Z,96.34
2022-11-13T04:52:13.134Z,96.32
2022-11-13T04:53:08.303Z,96.29
2022-11-13T04:54:03.609Z,96.37
2022-11-13T04:54:59.899Z,96.45
2022-11-13T04:55:55.048Z,96.51
2022-11-13T04:56:51.035Z,96.62
2022-11-13T04:57:46.216Z,96.67
2022-11-13T04:58:42.236Z,96.72
2022-11-13T04:59:37.256Z,96.77
2022-11-13T05:00:32.748Z,96.73
2022-11-13T05:01:28.278Z,96.68
2022-11-13T05:02:23.463Z,96.55
2022-11-13T05:03:18.729Z,96.60
2022-11-13T05:04:15.127Z,96.56
2022-11-13T05:05:10.419Z,96.56
2022-11-13T05:06:06.588Z,96.50
2022-11-13T05:07:01.589Z,96.51
2022-11-13T05:07:56.908Z,96.56
2022-11-13T05:08:52.518Z,96.60
2022-11-13T05:09:47.819Z,96.63
2022-11-13T05:10:43.887Z,96.69
2022-11-13T05:11:38.883Z,96.67
2022-11-13T05:12:34.307Z,96.60
2022-11-13T05:13:29.861Z,96.62
2022-11-13T05:14:24.623Z,96.64
2022-11-13T05:15:21.339Z,96.58
2022-11-13T05:16:16.488Z,96.53
2022-11-13T05:17:11.936Z,96.66
2022-11-13T05:18:07.545Z,96.64
2022-11-13T05:19:02.733Z,96.52
2022-11-13T05:19:57.928Z,96.40
2022-11-13T05:20:53.230Z,96.30
2022-11-13T05:21:48.254Z,96.24
2022-11-13T05:22:43.355Z,96.21
2022-11-13T05:23:38.394Z,96.20
2022-11-13T05:24:33.420Z,96.27
2022-11-13T05:25:28.486Z,96.25
2022-11-13T05:26:23.633Z,96.14
2022-11-13T05:27:19.125Z,96.16
2022-11-13T05:28:14.020Z,96.17
2022-11-13T05:29:09.024Z,96.24
2022-11-13T05:30:04.074Z,95.99
2022-11-13T05:30:59.144Z,95.81
2022-11-13T05:31:54.174Z,95.60
2022-11-13T05:32:49.228Z,95.48
2022-11-13T05:33:44.251Z,95.26
2022-11-13T05:34:39.279Z,95.12
2022-11-13T05:35:34.956Z,94.97
2022-11-13T05:36:29.359Z,94.87
2022-11-13T05:37:24.280Z,94.92
2022-11-13T05:38:19.283Z,94.95
2022-11-13T05:39:14.313Z,95.07
2022-11-13T05:40:09.338Z,95.21
2022-11-13T05:41:04.776Z,95.34
2022-11-13T05:41:59.794Z,95.43
2022-11-13T05:42:55.084Z,95.42
2022-11-13T05:43:53.725Z,95.51
2022-11-13T05:44:47.158Z,95.57
2022-11-13T05:45:41.417Z,95.72
2022-11-13T05:46:36.599Z,95.85
2022-11-13T05:47:32.863Z,95.86
2022-11-13T05:48:28.464Z,95.96
2022-11-13T05:49:24.626Z,96.07
2022-11-13T05:50:19.238Z,96.11
2022-11-13T05:51:14.963Z,95.97
2022-11-13T05:52:10.147Z,95.85
2022-11-13T05:53:05.349Z,95.67
2022-11-13T05:54:01.205Z,95.58
2022-11-13T05:54:56.360Z,95.58
2022-11-13T05:55:51.702Z,95.62
2022-11-13T05:56:47.574Z,95.64
2022-11-13T05:57:42.639Z,95.74
2022-11-13T05:58:37.913Z,95.69
2022-11-13T05:59:34.316Z,95.70
2022-11-13T06:00:29.644Z,95.82
2022-11-13T06:01:25.381Z,95.70
2022-11-13T06:02:20.619Z,95.56
2022-11-13T06:03:15.765Z,95.46
2022-11-13T06:04:11.646Z,95.36
2022-11-13T06:05:06.831Z,95.30
2022-11-13T06:06:02.763Z,95.33
2022-11-13T06:06:57.906Z,95.31
2022-11-13T06:07:53.245Z,95.25
2022-11-13T06:08:49.560Z,95.42
2022-11-13T06:09:44.096Z,95.43
2022-11-13T06:10:39.427Z,95.45
2022-11-13T06:11:35.629Z,95.50
2022-11-13T06:12:30.879Z,95.57
2022-11-13T06:13:26.754Z,95.69
2022-11-13T06:14:21.960Z,95.83
2022-11-13T06:15:17.331Z,95.91
2022-11-13T06:16:13.031Z,95.98
2022-11-13T06:17:08.263Z,96.03
2022-11-13T06:18:04.047Z,96.11
2022-11-13T06:18:59.238Z,96.21
2022-11-13T06:19:54.604Z,96.26
2022-11-13T06:20:50.338Z,96.25
2022-11-13T06:21:45.555Z,96.33
2022-11-13T06:22:40.772Z,96.24
2022-11-13T06:23:37.083Z,96.08
2022-11-13T06:24:32.332Z,95.85
2022-11-13T06:25:28.144Z,95.78
2022-11-13T06:26:23.456Z,95.75
2022-11-13T06:27:18.787Z,95.77
2022-11-13T06:28:14.446Z,95.80
2022-11-13T06:29:09.757Z,95.77
2022-11-13T06:30:05.560Z,95.75
2022-11-13T06:31:00.851Z,95.71
2022-11-13T06:31:56.148Z,95.79
2022-11-13T06:32:51.998Z,95.81
2022-11-13T06:33:47.276Z,95.68
2022-11-13T06:34:42.516Z,95.49
2022-11-13T06:35:39.035Z,95.27
2022-11-13T06:36:34.363Z,95.18
2022-11-13T06:37:34.511Z,95.21
2022-11-13T06:38:25.665Z,95.28
2022-11-13T06:39:20.894Z,95.36
2022-11-13T06:40:16.835Z,95.37
2022-11-13T06:41:12.155Z,95.35
2022-11-13T06:42:08.052Z,95.50
2022-11-13T06:43:03.262Z,95.56
2022-11-13T06:44:02.581Z,95.60
2022-11-13T06:44:54.399Z,95.61
2022-11-13T06:45:49.578Z,95.57
2022-11-13T06:46:46.218Z,95.57
2022-11-13T06:47:41.820Z,95.55
2022-11-13T06:48:37.274Z,95.51
2022-11-13T06:49:32.585Z,95.54
2022-11-13T06:50:27.942Z,95.57
2022-11-13T06:51:23.700Z,95.60
2022-11-13T06:52:19.041Z,95.70
2022-11-13T06:53:14.800Z,95.81
2022-11-13T06:54:10.112Z,95.91
2022-11-13T06:55:05.551Z,95.96
2022-11-13T06:56:01.291Z,95.97
2022-11-13T06:56:56.628Z,95.99
2022-11-13T06:57:51.925Z,96.02
2022-11-13T06:58:48.278Z,96.02
2022-11-13T06:59:43.589Z,96.02
2022-11-13T07:00:40.232Z,95.99
2022-11-13T07:01:34.743Z,95.93
2022-11-13T07:02:30.129Z,95.90
2022-11-13T07:03:25.450Z,95.96
2022-11-13T07:04:20.808Z,95.96
2022-11-13T07:05:16.111Z,96.04
2022-11-13T07:06:11.173Z,96.07
2022-11-13T07:07:06.309Z,96.03
2022-11-13T07:08:01.591Z,96.10
2022-11-13T07:08:56.398Z,96.24
2022-11-13T07:09:51.450Z,96.25
2022-11-13T07:10:46.522Z,96.03
2022-11-13T07:11:41.582Z,95.86
2022-11-13T07:12:36.655Z,95.76
2022-11-13T07:13:31.913Z,95.71
2022-11-13T07:14:26.875Z,95.64
2022-11-13T07:15:23.608Z,95.61
2022-11-13T07:16:18.897Z,95.71
2022-11-13T07:17:14.248Z,95.58
2022-11-13T07:18:09.647Z,95.28
2022-11-13T07:19:04.794Z,95.10
2022-11-13T07:19:59.756Z,94.88
2022-11-13T07:20:54.940Z,94.58
2022-11-13T07:21:49.877Z,94.45
2022-11-13T07:22:45.111Z,94.48
2022-11-13T07:23:40.114Z,94.39
2022-11-13T07:24:35.084Z,94.46
2022-11-13T07:25:30.073Z,94.38
2022-11-13T07:26:25.157Z,94.40
2022-11-13T07:27:20.262Z,94.48
2022-11-13T07:28:15.499Z,94.36
2022-11-13T07:29:10.905Z,94.28
2022-11-13T07:30:06.706Z,94.40
2022-11-13T07:31:02.042Z,94.33
2022-11-13T07:31:57.463Z,94.04
2022-11-13T07:32:53.297Z,93.60
2022-11-13T07:33:48.719Z,93.43
2022-11-13T07:34:44.512Z,93.36
2022-11-13T07:35:39.887Z,93.29
2022-11-13T07:36:35.279Z,93.46
2022-11-13T07:37:31.157Z,93.66
2022-11-13T07:38:26.994Z,93.71
2022-11-13T07:39:22.093Z,93.76
2022-11-13T07:40:17.124Z,93.86
2022-11-13T07:41:12.168Z,93.98
2022-11-13T07:42:07.180Z,93.99
2022-11-13T07:43:02.280Z,93.80
2022-11-13T07:43:57.302Z,93.75
2022-11-13T07:44:54.885Z,93.67
2022-11-13T07:45:47.430Z,93.54
2022-11-13T07:46:42.448Z,93.51
2022-11-13T07:47:37.642Z,93.48
2022-11-13T07:48:32.735Z,93.54
2022-11-13T07:49:27.539Z,93.57
2022-11-13T07:50:24.787Z,93.52
2022-11-13T07:51:19.772Z,93.69
2022-11-13T07:52:14.944Z,93.82
2022-11-13T07:53:09.926Z,93.93
2022-11-13T07:54:05.027Z,94.05
2022-11-13T07:55:00.035Z,94.04
2022-11-13T07:55:55.050Z,94.00
2022-11-13T07:56:50.088Z,93.97
2022-11-13T07:57:45.079Z,93.92
2022-11-13T07:58:40.213Z,93.87
2022-11-13T07:59:36.239Z,93.85
2022-11-13T08:00:31.649Z,93.89
2022-11-13T08:01:27.593Z,93.95
2022-11-13T08:02:26.513Z,93.91
2022-11-13T08:03:18.528Z,93.88
2022-11-13T08:04:13.577Z,93.89
2022-11-13T08:05:08.594Z,93.74
2022-11-13T08:06:09.042Z,93.57
2022-11-13T08:07:04.416Z,93.55
2022-11-13T08:07:59.842Z,93.52
2022-11-13T08:08:55.576Z,93.25
2022-11-13T08:09:51.002Z,93.06
2022-11-13T08:10:46.426Z,93.07
2022-11-13T08:11:42.717Z,93.06
2022-11-13T08:12:38.163Z,93.06
2022-11-13T08:13:33.986Z,93.08
2022-11-13T08:14:29.619Z,93.19
2022-11-13T08:15:25.054Z,93.34
2022-11-13T08:16:20.795Z,93.50
2022-11-13T08:17:16.241Z,93.48
2022-11-13T08:18:12.585Z,93.42
2022-11-13T08:19:07.476Z,93.51
2022-11-13T08:20:02.905Z,93.58
2022-11-13T08:20:58.651Z,93.72
2022-11-13T08:21:54.788Z,93.78
2022-11-13T08:22:49.508Z,93.71
2022-11-13T08:23:44.595Z,93.65
2022-11-13T08:24:39.640Z,93.58
2022-11-13T08:25:34.670Z,93.56
2022-11-13T08:26:30.036Z,93.61
2022-11-13T08:27:24.775Z,93.54
2022-11-13T08:28:19.831Z,93.52
2022-11-13T08:29:14.851Z,93.57
2022-11-13T08:30:09.887Z,93.56
2022-11-13T08:31:05.063Z,93.37
2022-11-13T08:32:00.117Z,93.28
2022-11-13T08:32:55.127Z,93.28
2022-11-13T08:33:50.146Z,93.27
2022-11-13T08:34:45.199Z,93.25
2022-11-13T08:35:40.423Z,93.25
2022-11-13T08:36:35.387Z,93.18
2022-11-13T08:37:30.416Z,93.11
2022-11-13T08:38:26.036Z,92.78
2022-11-13T08:39:21.098Z,92.43
2022-11-13T08:40:16.611Z,92.23
2022-11-13T08:41:12.339Z,92.42
2022-11-13T08:42:07.731Z,92.47
2022-11-13T08:43:03.169Z,92.53
2022-11-13T08:43:58.644Z,92.51
2022-11-13T08:44:54.070Z,92.46
2022-11-13T08:45:50.848Z,92.47
2022-11-13T08:46:46.353Z,92.56
2022-11-13T08:47:42.233Z,92.70
2022-11-13T08:48:37.559Z,92.76
2022-11-13T08:49:32.968Z,92.74
2022-11-13T08:50:28.657Z,92.67
2022-11-13T08:51:25.151Z,92.77
2022-11-13T08:52:20.650Z,92.98
2022-11-13T08:53:16.099Z,93.21
2022-11-13T08:54:11.556Z,93.46
2022-11-13T08:55:06.597Z,93.72
2022-11-13T08:56:01.642Z,93.85
2022-11-13T08:56:59.627Z,93.87
2022-11-13T08:57:52.767Z,93.99
2022-11-13T08:58:46.839Z,94.04
2022-11-13T08:59:42.044Z,94.11
2022-11-13T09:00:36.940Z,94.00
2022-11-13T09:01:31.988Z,93.89
2022-11-13T09:02:27.080Z,93.75
2022-11-13T09:03:22.554Z,93.56
2022-11-13T09:04:18.856Z,93.29
2022-11-13T09:05:14.333Z,92.95
2022-11-13T09:06:10.169Z,92.82
2022-11-13T09:07:05.681Z,92.73
2022-11-13T09:08:01.211Z,92.68
2022-11-13T09:08:57.011Z,92.74
2022-11-13T09:09:52.433Z,92.86
2022-11-13T09:10:48.310Z,93.04
2022-11-13T09:11:43.580Z,93.10
2022-11-13T09:12:39.011Z,93.08
2022-11-13T09:13:36.603Z,92.94
2022-11-13T09:14:31.348Z,92.58
2022-11-13T09:15:25.600Z,92.35
2022-11-13T09:16:20.678Z,92.39
2022-11-13T09:17:16.016Z,92.42
2022-11-13T09:18:10.803Z,92.45
2022-11-13T09:19:05.824Z,92.63
2022-11-13T09:20:03.922Z,92.75
2022-11-13T09:20:55.959Z,92.85
2022-11-13T09:21:50.976Z,93.01
2022-11-13T09:22:49.971Z,92.96
2022-11-13T09:23:44.984Z,92.91
2022-11-13T09:24:40.194Z,92.92
2022-11-13T09:25:37.652Z,92.82
2022-11-13T09:26:30.163Z,92.80
2022-11-13T09:27:25.319Z,92.68
2022-11-13T09:28:20.330Z,92.72
2022-11-13T09:29:15.380Z,92.72
2022-11-13T09:30:10.468Z,92.64
2022-11-13T09:31:05.472Z,92.56
2022-11-13T09:32:01.608Z,92.63
2022-11-13T09:32:57.033Z,92.61
2022-11-13T09:33:52.915Z,92.63
2022-11-13T09:34:48.410Z,92.61
2022-11-13T09:35:43.829Z,92.53
2022-11-13T09:36:39.598Z,92.45
2022-11-13T09:37:35.035Z,92.08
2022-11-13T09:38:31.167Z,91.91
2022-11-13T09:39:26.352Z,91.90
2022-11-13T09:40:21.732Z,91.83
2022-11-13T09:41:17.500Z,91.80
2022-11-13T09:42:12.967Z,91.68
2022-11-13T09:43:08.420Z,91.71
2022-11-13T09:44:04.697Z,91.61
2022-11-13T09:45:00.142Z,91.22
2022-11-13T09:45:56.057Z,90.96
2022-11-13T09:46:51.525Z,90.80
2022-11-13T09:47:46.944Z,90.90
2022-11-13T09:48:42.693Z,90.92
2022-11-13T09:49:38.171Z,90.94
2022-11-13T09:50:34.035Z,90.93
2022-11-13T09:51:29.369Z,90.98
2022-11-13T09:52:24.854Z,90.97
2022-11-13T09:53:20.555Z,90.93
2022-11-13T09:54:16.056Z,90.66
2022-11-13T09:55:11.489Z,90.57
2022-11-13T09:56:07.778Z,90.65
2022-11-13T09:57:03.235Z,90.68
2022-11-13T09:57:58.676Z,90.62
2022-11-13T09:58:54.174Z,90.42
2022-11-13T09:59:49.884Z,90.55
2022-11-13T10:00:45.429Z,90.68
2022-11-13T10:01:41.109Z,90.58
2022-11-13T10:02:36.585Z,90.30
2022-11-13T10:03:59.916Z,90.02
2022-11-13T10:04:28.877Z,89.96
2022-11-13T10:05:23.242Z,89.97
2022-11-13T10:06:18.650Z,90.08
2022-11-13T10:07:15.364Z,90.07
2022-11-13T10:08:10.683Z,90.04
2022-11-13T10:09:06.412Z,90.18
2022-11-13T10:10:01.838Z,90.22
2022-11-13T10:10:57.272Z,90.06
2022-11-13T10:11:53.295Z,89.93
2022-11-13T10:12:48.742Z,89.86
2022-11-13T10:13:44.492Z,89.77
2022-11-13T10:14:39.937Z,89.68
2022-11-13T10:15:35.347Z,89.79
2022-11-13T10:16:30.798Z,89.79
2022-11-13T10:17:26.208Z,89.83
2022-11-13T10:18:21.780Z,89.84
2022-11-13T10:19:16.875Z,89.86
2022-11-13T10:20:11.892Z,89.80
2022-11-13T10:21:11.789Z,89.84
2022-11-13T10:22:31.614Z,89.62
2022-11-13T10:23:03.566Z,89.44
2022-11-13T10:23:57.963Z,89.21
2022-11-13T10:24:53.945Z,88.70
2022-11-13T10:25:49.379Z,88.68
2022-11-13T10:26:44.825Z,88.65
2022-11-13T10:27:40.549Z,88.57
2022-11-13T10:28:50.132Z,88.51
2022-11-13T10:29:32.497Z,88.42
2022-11-13T10:30:27.425Z,88.24
2022-11-13T10:31:22.751Z,88.41
2022-11-13T10:32:18.172Z,88.58
2022-11-13T10:33:14.593Z,88.57
2022-11-13T10:34:10.068Z,88.46
2022-11-13T10:35:05.822Z,87.98
2022-11-13T10:36:01.250Z,87.89
2022-11-13T10:36:56.702Z,88.04
2022-11-13T10:37:52.557Z,88.19
2022-11-13T10:38:48.023Z,88.24
2022-11-13T10:39:43.800Z,88.24
2022-11-13T10:40:39.292Z,88.07
2022-11-13T10:41:34.771Z,88.15
2022-11-13T10:42:30.675Z,88.22
2022-11-13T10:43:26.224Z,88.36
2022-11-13T10:44:21.504Z,88.70
2022-11-13T10:45:18.199Z,88.66
2022-11-13T10:46:13.676Z,88.67
2022-11-13T10:47:09.552Z,88.63
2022-11-13T10:48:05.438Z,88.61
2022-11-13T10:49:00.382Z,88.32
2022-11-13T10:49:56.378Z,88.32
2022-11-13T10:50:51.816Z,88.08
2022-11-13T10:51:47.683Z,87.81
2022-11-13T10:52:43.084Z,87.78
2022-11-13T10:53:38.382Z,87.80
2022-11-13T10:54:34.119Z,88.01
2022-11-13T10:55:29.618Z,87.81
2022-11-13T10:56:25.067Z,87.57
2022-11-13T10:57:21.922Z,87.27
2022-11-13T10:58:16.840Z,87.20
2022-11-13T10:59:12.683Z,87.41
2022-11-13T11:00:08.153Z,87.24
2022-11-13T11:01:03.624Z,87.17
2022-11-13T11:01:59.493Z,87.26
2022-11-13T11:02:54.880Z,87.46
2022-11-13T11:03:50.723Z,87.61
2022-11-13T11:04:46.065Z,87.68
2022-11-13T11:05:41.488Z,87.51
2022-11-13T11:07:12.808Z,87.11
2022-11-13T11:07:33.695Z,86.77
2022-11-13T11:08:28.286Z,86.71
2022-11-13T11:09:23.147Z,86.85
2022-11-13T11:10:18.187Z,87.15
2022-11-13T11:11:13.247Z,87.24
2022-11-13T11:12:08.875Z,86.78
2022-11-13T11:13:03.408Z,86.43
2022-11-13T11:13:58.445Z,86.33
2022-11-13T11:14:53.530Z,86.27
2022-11-13T11:15:48.555Z,86.26
2022-11-13T11:16:43.607Z,86.38
2022-11-13T11:17:38.685Z,86.59
2022-11-13T11:18:33.713Z,86.63
2022-11-13T11:19:30.887Z,86.79
2022-11-13T11:20:26.010Z,86.69
2022-11-13T11:21:21.094Z,86.54
2022-11-13T11:22:16.189Z,86.27
2022-11-13T11:23:11.280Z,85.98
2022-11-13T11:24:06.263Z,85.88
2022-11-13T11:25:01.230Z,85.50
2022-11-13T11:25:56.372Z,85.03
2022-11-13T11:26:51.329Z,85.03
2022-11-13T11:27:46.820Z,84.65
2022-11-13T11:28:42.288Z,84.50
2022-11-13T11:29:38.088Z,84.57
2022-11-13T11:30:33.450Z,84.54
2022-11-13T11:31:28.957Z,84.06
2022-11-13T11:32:24.759Z,84.16
2022-11-13T11:33:20.197Z,84.10
2022-11-13T11:34:15.991Z,84.06
2022-11-13T11:35:11.467Z,83.83
2022-11-13T11:36:06.977Z,83.62
2022-11-13T11:37:02.905Z,83.30
2022-11-13T11:37:58.429Z,83.38
2022-11-13T11:38:53.925Z,83.61
2022-11-13T11:39:50.131Z,83.23
2022-11-13T11:40:45.591Z,82.24
2022-11-13T11:41:41.483Z,82.01
2022-11-13T11:42:36.939Z,82.17
2022-11-13T11:43:32.496Z,82.49
2022-11-13T11:44:28.216Z,82.74
2022-11-13T11:45:23.633Z,82.88
2022-11-13T11:46:19.142Z,82.60
2022-11-13T11:47:14.664Z,82.42
2022-11-13T11:48:10.177Z,82.47
2022-11-13T11:49:05.238Z,82.62
2022-11-13T11:50:00.299Z,82.39
2022-11-13T11:50:55.448Z,81.96
2022-11-13T11:51:50.410Z,81.84
2022-11-13T11:52:45.429Z,81.93
2022-11-13T11:53:40.429Z,82.00
2022-11-13T11:54:35.485Z,81.90